sensor_id;sensor_type;location;lat;lon;timestamp;temperature;humidity
25092;DHT22;13082;52.374;4.946;2023-12-07T00:02:14;5.50;99.90
25092;DHT22;13082;52.374;4.946;2023-12-07T00:04:40;5.50;99.90
25092;DHT22;13082;52.374;4.946;2023-12-07T00:07:05;5.50;99.90
25092;DHT22;13082;52.374;4.946;2023-12-07T00:09:31;5.40;99.90
25092;DHT22;13082;52.374;4.946;2023-12-07T00:11:57;5.40;99.90
25092;DHT22;13082;52.374;4.946;2023-12-07T00:14:22;5.40;99.90
25092;DHT22;13082;52.374;4.946;2023-12-07T00:16:48;5.40;99.90
25092;DHT22;13082;52.374;4.946;2023-12-07T00:19:14;5.30;99.90
25092;DHT22;13082;52.374;4.946;2023-12-07T00:21:40;5.20;99.90
25092;DHT22;13082;52.374;4.946;2023-12-07T00:24:05;5.20;99.90
25092;DHT22;13082;52.374;4.946;2023-12-07T00:26:31;5.10;99.90
25092;DHT22;13082;52.374;4.946;2023-12-07T00:28:56;5.20;99.90
25092;DHT22;13082;52.374;4.946;2023-12-07T00:31:22;5.10;99.90
25092;DHT22;13082;52.374;4.946;2023-12-07T00:33:48;5.20;99.90
25092;DHT22;13082;52.374;4.946;2023-12-07T00:36:13;5.20;99.90
25092;DHT22;13082;52.374;4.946;2023-12-07T00:38:39;5.20;99.90
25092;DHT22;13082;52.374;4.946;2023-12-07T00:41:04;5.30;99.90
25092;DHT22;13082;52.374;4.946;2023-12-07T00:43:30;5.30;99.90
25092;DHT22;13082;52.374;4.946;2023-12-07T00:45:56;5.30;99.90
25092;DHT22;13082;52.374;4.946;2023-12-07T00:48:23;5.30;99.90
25092;DHT22;13082;52.374;4.946;2023-12-07T00:50:48;5.40;99.90
25092;DHT22;13082;52.374;4.946;2023-12-07T00:53:14;5.40;99.90
25092;DHT22;13082;52.374;4.946;2023-12-07T00:55:39;5.30;99.90
25092;DHT22;13082;52.374;4.946;2023-12-07T00:58:05;5.20;99.90
25092;DHT22;13082;52.374;4.946;2023-12-07T01:00:31;5.20;99.90
25092;DHT22;13082;52.374;4.946;2023-12-07T01:02:57;5.10;99.90
25092;DHT22;13082;52.374;4.946;2023-12-07T01:05:22;5.10;99.90
25092;DHT22;13082;52.374;4.946;2023-12-07T01:07:48;5.10;99.90
25092;DHT22;13082;52.374;4.946;2023-12-07T01:10:14;5.10;99.90
25092;DHT22;13082;52.374;4.946;2023-12-07T01:12:39;5.20;99.90
25092;DHT22;13082;52.374;4.946;2023-12-07T01:15:05;5.30;99.90
25092;DHT22;13082;52.374;4.946;2023-12-07T01:17:31;5.40;99.90
25092;DHT22;13082;52.374;4.946;2023-12-07T01:19:57;5.40;99.90
25092;DHT22;13082;52.374;4.946;2023-12-07T01:22:23;5.50;99.90
25092;DHT22;13082;52.374;4.946;2023-12-07T01:24:48;5.50;99.90
25092;DHT22;13082;52.374;4.946;2023-12-07T01:27:14;5.40;99.90
25092;DHT22;13082;52.374;4.946;2023-12-07T01:29:39;5.40;99.90
25092;DHT22;13082;52.374;4.946;2023-12-07T01:32:05;5.20;99.90
25092;DHT22;13082;52.374;4.946;2023-12-07T01:34:31;5.10;99.90
25092;DHT22;13082;52.374;4.946;2023-12-07T01:36:58;5.10;99.90
25092;DHT22;13082;52.374;4.946;2023-12-07T01:39:23;5.10;99.90
25092;DHT22;13082;52.374;4.946;2023-12-07T01:41:50;5.10;99.90
25092;DHT22;13082;52.374;4.946;2023-12-07T01:44:16;5.00;99.90
25092;DHT22;13082;52.374;4.946;2023-12-07T01:46:42;5.00;99.90
25092;DHT22;13082;52.374;4.946;2023-12-07T01:49:08;5.10;99.90
25092;DHT22;13082;52.374;4.946;2023-12-07T01:51:34;5.10;99.90
25092;DHT22;13082;52.374;4.946;2023-12-07T01:54:00;5.00;99.90
25092;DHT22;13082;52.374;4.946;2023-12-07T01:56:26;4.90;99.90
25092;DHT22;13082;52.374;4.946;2023-12-07T01:58:52;4.80;99.90
25092;DHT22;13082;52.374;4.946;2023-12-07T02:01:18;4.80;99.90
25092;DHT22;13082;52.374;4.946;2023-12-07T02:03:44;4.90;99.90
25092;DHT22;13082;52.374;4.946;2023-12-07T02:06:09;4.90;99.90
25092;DHT22;13082;52.374;4.946;2023-12-07T02:08:36;5.00;99.90
25092;DHT22;13082;52.374;4.946;2023-12-07T02:11:09;5.10;99.90
25092;DHT22;13082;52.374;4.946;2023-12-07T02:13:37;5.20;99.90
25092;DHT22;13082;52.374;4.946;2023-12-07T02:16:07;5.20;99.90
25092;DHT22;13082;52.374;4.946;2023-12-07T02:18:50;5.20;99.90
25092;DHT22;13082;52.374;4.946;2023-12-07T02:21:25;5.20;99.90
25092;DHT22;13082;52.374;4.946;2023-12-07T02:23:55;5.10;99.90
25092;DHT22;13082;52.374;4.946;2023-12-07T02:26:57;5.00;99.90
25092;DHT22;13082;52.374;4.946;2023-12-07T02:29:16;4.90;99.90
25092;DHT22;13082;52.374;4.946;2023-12-07T02:31:42;4.80;99.90
25092;DHT22;13082;52.374;4.946;2023-12-07T02:34:07;4.70;99.90
25092;DHT22;13082;52.374;4.946;2023-12-07T02:36:34;4.70;99.90
25092;DHT22;13082;52.374;4.946;2023-12-07T02:39:02;4.70;99.90
25092;DHT22;13082;52.374;4.946;2023-12-07T02:41:30;4.60;99.90
25092;DHT22;13082;52.374;4.946;2023-12-07T02:43:57;4.60;99.90
25092;DHT22;13082;52.374;4.946;2023-12-07T02:46:26;4.60;99.90
25092;DHT22;13082;52.374;4.946;2023-12-07T02:48:52;4.60;99.90
25092;DHT22;13082;52.374;4.946;2023-12-07T02:51:18;4.60;99.90
25092;DHT22;13082;52.374;4.946;2023-12-07T02:53:43;4.60;99.90
25092;DHT22;13082;52.374;4.946;2023-12-07T02:56:09;4.60;99.90
25092;DHT22;13082;52.374;4.946;2023-12-07T02:58:34;4.60;99.90
25092;DHT22;13082;52.374;4.946;2023-12-07T03:01:00;4.60;99.90
25092;DHT22;13082;52.374;4.946;2023-12-07T03:03:26;4.50;99.90
25092;DHT22;13082;52.374;4.946;2023-12-07T03:05:51;4.50;99.90
25092;DHT22;13082;52.374;4.946;2023-12-07T03:08:17;4.50;99.90
25092;DHT22;13082;52.374;4.946;2023-12-07T03:10:42;4.50;99.90
25092;DHT22;13082;52.374;4.946;2023-12-07T03:13:08;4.40;99.90
25092;DHT22;13082;52.374;4.946;2023-12-07T03:15:33;4.40;99.90
25092;DHT22;13082;52.374;4.946;2023-12-07T03:17:59;4.40;99.90
25092;DHT22;13082;52.374;4.946;2023-12-07T03:20:25;4.40;99.90
25092;DHT22;13082;52.374;4.946;2023-12-07T03:22:50;4.40;99.90
25092;DHT22;13082;52.374;4.946;2023-12-07T03:25:16;4.40;99.90
25092;DHT22;13082;52.374;4.946;2023-12-07T03:27:41;4.40;99.90
25092;DHT22;13082;52.374;4.946;2023-12-07T03:30:07;4.40;99.90
25092;DHT22;13082;52.374;4.946;2023-12-07T03:32:33;4.40;99.90
25092;DHT22;13082;52.374;4.946;2023-12-07T03:34:58;4.50;99.90
25092;DHT22;13082;52.374;4.946;2023-12-07T03:37:24;4.50;99.90
25092;DHT22;13082;52.374;4.946;2023-12-07T03:39:49;4.40;99.90
25092;DHT22;13082;52.374;4.946;2023-12-07T03:42:15;4.40;99.90
25092;DHT22;13082;52.374;4.946;2023-12-07T03:44:40;4.40;99.90
25092;DHT22;13082;52.374;4.946;2023-12-07T03:47:06;4.40;99.90
25092;DHT22;13082;52.374;4.946;2023-12-07T03:49:32;4.40;99.90
25092;DHT22;13082;52.374;4.946;2023-12-07T03:51:57;4.30;99.90
25092;DHT22;13082;52.374;4.946;2023-12-07T03:54:23;4.30;99.90
25092;DHT22;13082;52.374;4.946;2023-12-07T03:56:48;4.30;99.90
25092;DHT22;13082;52.374;4.946;2023-12-07T03:59:14;4.30;99.90
25092;DHT22;13082;52.374;4.946;2023-12-07T04:01:40;4.30;99.90
25092;DHT22;13082;52.374;4.946;2023-12-07T04:04:06;4.30;99.90
25092;DHT22;13082;52.374;4.946;2023-12-07T04:06:31;4.30;99.90
25092;DHT22;13082;52.374;4.946;2023-12-07T04:08:57;4.30;99.90
25092;DHT22;13082;52.374;4.946;2023-12-07T04:11:23;4.40;99.90
25092;DHT22;13082;52.374;4.946;2023-12-07T04:13:48;4.30;99.90
25092;DHT22;13082;52.374;4.946;2023-12-07T04:16:14;4.30;99.90
25092;DHT22;13082;52.374;4.946;2023-12-07T04:18:40;4.30;99.90
25092;DHT22;13082;52.374;4.946;2023-12-07T04:21:05;4.30;99.90
25092;DHT22;13082;52.374;4.946;2023-12-07T04:23:31;4.20;99.90
25092;DHT22;13082;52.374;4.946;2023-12-07T04:25:57;4.20;99.90
25092;DHT22;13082;52.374;4.946;2023-12-07T04:28:22;4.20;99.90
25092;DHT22;13082;52.374;4.946;2023-12-07T04:30:48;4.20;99.90
25092;DHT22;13082;52.374;4.946;2023-12-07T04:33:14;4.10;99.90
25092;DHT22;13082;52.374;4.946;2023-12-07T04:35:39;4.10;99.90
25092;DHT22;13082;52.374;4.946;2023-12-07T04:38:05;4.10;99.90
25092;DHT22;13082;52.374;4.946;2023-12-07T04:40:31;4.00;99.90
25092;DHT22;13082;52.374;4.946;2023-12-07T04:42:56;4.00;99.90
25092;DHT22;13082;52.374;4.946;2023-12-07T04:45:22;4.00;99.90
25092;DHT22;13082;52.374;4.946;2023-12-07T04:47:47;3.90;99.90
25092;DHT22;13082;52.374;4.946;2023-12-07T04:50:13;3.90;99.90
25092;DHT22;13082;52.374;4.946;2023-12-07T04:52:39;3.90;99.90
25092;DHT22;13082;52.374;4.946;2023-12-07T04:55:06;3.90;99.90
25092;DHT22;13082;52.374;4.946;2023-12-07T04:57:35;3.90;99.90
25092;DHT22;13082;52.374;4.946;2023-12-07T05:00:01;3.90;99.90
25092;DHT22;13082;52.374;4.946;2023-12-07T05:02:31;4.00;99.90
25092;DHT22;13082;52.374;4.946;2023-12-07T05:04:57;4.00;99.90
25092;DHT22;13082;52.374;4.946;2023-12-07T05:07:22;4.10;99.90
25092;DHT22;13082;52.374;4.946;2023-12-07T05:09:49;4.10;99.90
25092;DHT22;13082;52.374;4.946;2023-12-07T05:12:16;4.10;99.90
25092;DHT22;13082;52.374;4.946;2023-12-07T05:14:42;4.10;99.90
25092;DHT22;13082;52.374;4.946;2023-12-07T05:17:07;4.10;99.90
25092;DHT22;13082;52.374;4.946;2023-12-07T05:19:33;4.10;99.90
25092;DHT22;13082;52.374;4.946;2023-12-07T05:21:58;4.10;99.90
25092;DHT22;13082;52.374;4.946;2023-12-07T05:24:24;4.10;99.90
25092;DHT22;13082;52.374;4.946;2023-12-07T05:26:50;4.10;99.90
25092;DHT22;13082;52.374;4.946;2023-12-07T05:29:15;4.10;99.90
25092;DHT22;13082;52.374;4.946;2023-12-07T05:31:41;4.00;99.90
25092;DHT22;13082;52.374;4.946;2023-12-07T05:34:07;4.00;99.90
25092;DHT22;13082;52.374;4.946;2023-12-07T05:36:33;4.00;99.90
25092;DHT22;13082;52.374;4.946;2023-12-07T05:38:59;4.00;99.90
25092;DHT22;13082;52.374;4.946;2023-12-07T05:41:24;3.90;99.90
25092;DHT22;13082;52.374;4.946;2023-12-07T05:43:51;3.90;99.90
25092;DHT22;13082;52.374;4.946;2023-12-07T05:46:18;3.90;99.90
25092;DHT22;13082;52.374;4.946;2023-12-07T05:48:44;3.90;99.90
25092;DHT22;13082;52.374;4.946;2023-12-07T05:51:14;3.80;99.90
25092;DHT22;13082;52.374;4.946;2023-12-07T05:53:40;3.80;99.90
25092;DHT22;13082;52.374;4.946;2023-12-07T05:56:06;3.80;99.90
25092;DHT22;13082;52.374;4.946;2023-12-07T05:58:32;3.80;99.90
25092;DHT22;13082;52.374;4.946;2023-12-07T06:00:59;3.70;99.90
25092;DHT22;13082;52.374;4.946;2023-12-07T06:03:25;3.70;99.90
25092;DHT22;13082;52.374;4.946;2023-12-07T06:05:51;3.60;99.90
25092;DHT22;13082;52.374;4.946;2023-12-07T06:08:17;3.60;99.90
25092;DHT22;13082;52.374;4.946;2023-12-07T06:10:43;3.50;99.90
25092;DHT22;13082;52.374;4.946;2023-12-07T06:13:09;3.40;99.90
25092;DHT22;13082;52.374;4.946;2023-12-07T06:15:35;3.40;99.90
25092;DHT22;13082;52.374;4.946;2023-12-07T06:18:01;3.30;99.90
25092;DHT22;13082;52.374;4.946;2023-12-07T06:20:27;3.30;99.90
25092;DHT22;13082;52.374;4.946;2023-12-07T06:22:52;3.20;99.90
25092;DHT22;13082;52.374;4.946;2023-12-07T06:25:18;3.20;99.90
25092;DHT22;13082;52.374;4.946;2023-12-07T06:27:43;3.10;99.90
25092;DHT22;13082;52.374;4.946;2023-12-07T06:30:10;3.00;99.90
25092;DHT22;13082;52.374;4.946;2023-12-07T06:32:36;3.10;99.90
25092;DHT22;13082;52.374;4.946;2023-12-07T06:35:02;3.00;99.90
25092;DHT22;13082;52.374;4.946;2023-12-07T06:37:30;3.00;99.90
25092;DHT22;13082;52.374;4.946;2023-12-07T06:39:55;2.90;99.90
25092;DHT22;13082;52.374;4.946;2023-12-07T06:42:21;2.90;99.90
25092;DHT22;13082;52.374;4.946;2023-12-07T06:44:47;2.80;99.90
25092;DHT22;13082;52.374;4.946;2023-12-07T06:47:14;2.70;99.90
25092;DHT22;13082;52.374;4.946;2023-12-07T06:49:40;2.60;99.90
25092;DHT22;13082;52.374;4.946;2023-12-07T06:52:06;2.60;99.90
25092;DHT22;13082;52.374;4.946;2023-12-07T06:54:31;2.60;99.90
25092;DHT22;13082;52.374;4.946;2023-12-07T06:56:57;2.60;99.90
25092;DHT22;13082;52.374;4.946;2023-12-07T06:59:22;2.50;99.90
25092;DHT22;13082;52.374;4.946;2023-12-07T07:01:48;2.40;99.90
25092;DHT22;13082;52.374;4.946;2023-12-07T07:04:14;2.40;99.90
25092;DHT22;13082;52.374;4.946;2023-12-07T07:06:40;2.30;99.90
25092;DHT22;13082;52.374;4.946;2023-12-07T07:09:06;2.20;99.90
25092;DHT22;13082;52.374;4.946;2023-12-07T07:11:32;2.10;99.90
25092;DHT22;13082;52.374;4.946;2023-12-07T07:13:57;1.90;99.90
25092;DHT22;13082;52.374;4.946;2023-12-07T07:16:23;1.90;99.90
25092;DHT22;13082;52.374;4.946;2023-12-07T07:18:48;1.90;99.90
25092;DHT22;13082;52.374;4.946;2023-12-07T07:21:14;1.90;99.90
25092;DHT22;13082;52.374;4.946;2023-12-07T07:23:40;1.90;99.90
25092;DHT22;13082;52.374;4.946;2023-12-07T07:26:05;1.90;99.90
25092;DHT22;13082;52.374;4.946;2023-12-07T07:28:31;1.80;99.90
25092;DHT22;13082;52.374;4.946;2023-12-07T07:30:57;1.80;99.90
25092;DHT22;13082;52.374;4.946;2023-12-07T07:33:22;1.70;99.90
25092;DHT22;13082;52.374;4.946;2023-12-07T07:35:48;1.70;99.90
25092;DHT22;13082;52.374;4.946;2023-12-07T07:38:13;1.70;99.90
25092;DHT22;13082;52.374;4.946;2023-12-07T07:40:39;1.70;99.90
25092;DHT22;13082;52.374;4.946;2023-12-07T07:43:05;1.70;99.90
25092;DHT22;13082;52.374;4.946;2023-12-07T07:45:31;1.70;99.90
25092;DHT22;13082;52.374;4.946;2023-12-07T07:47:57;1.70;99.90
25092;DHT22;13082;52.374;4.946;2023-12-07T07:50:22;1.60;99.90
25092;DHT22;13082;52.374;4.946;2023-12-07T07:52:48;1.60;99.90
25092;DHT22;13082;52.374;4.946;2023-12-07T07:55:13;1.50;99.90
25092;DHT22;13082;52.374;4.946;2023-12-07T07:57:39;1.50;99.90
25092;DHT22;13082;52.374;4.946;2023-12-07T08:00:05;1.50;99.90
25092;DHT22;13082;52.374;4.946;2023-12-07T08:02:33;1.40;99.90
25092;DHT22;13082;52.374;4.946;2023-12-07T08:04:59;1.50;99.90
25092;DHT22;13082;52.374;4.946;2023-12-07T08:07:25;1.40;99.90
25092;DHT22;13082;52.374;4.946;2023-12-07T08:09:50;1.50;99.90
25092;DHT22;13082;52.374;4.946;2023-12-07T08:12:16;1.40;99.90
25092;DHT22;13082;52.374;4.946;2023-12-07T08:14:42;1.40;99.90
25092;DHT22;13082;52.374;4.946;2023-12-07T08:17:09;1.40;99.90
25092;DHT22;13082;52.374;4.946;2023-12-07T08:19:34;1.40;99.90
25092;DHT22;13082;52.374;4.946;2023-12-07T08:22:00;1.50;99.90
25092;DHT22;13082;52.374;4.946;2023-12-07T08:24:26;1.50;99.90
25092;DHT22;13082;52.374;4.946;2023-12-07T08:26:51;1.50;99.90
25092;DHT22;13082;52.374;4.946;2023-12-07T08:29:17;1.50;99.90
25092;DHT22;13082;52.374;4.946;2023-12-07T08:31:42;1.40;99.90
25092;DHT22;13082;52.374;4.946;2023-12-07T08:34:08;1.40;99.90
25092;DHT22;13082;52.374;4.946;2023-12-07T08:36:34;1.30;99.90
25092;DHT22;13082;52.374;4.946;2023-12-07T08:38:59;1.30;99.90
25092;DHT22;13082;52.374;4.946;2023-12-07T08:41:25;1.30;99.90
25092;DHT22;13082;52.374;4.946;2023-12-07T08:43:50;1.30;99.90
25092;DHT22;13082;52.374;4.946;2023-12-07T08:46:16;1.30;99.90
25092;DHT22;13082;52.374;4.946;2023-12-07T08:48:42;1.20;99.90
25092;DHT22;13082;52.374;4.946;2023-12-07T08:51:08;1.20;99.90
25092;DHT22;13082;52.374;4.946;2023-12-07T08:53:34;1.10;99.90
25092;DHT22;13082;52.374;4.946;2023-12-07T08:56:01;1.10;99.90
25092;DHT22;13082;52.374;4.946;2023-12-07T08:58:27;1.10;99.90
25092;DHT22;13082;52.374;4.946;2023-12-07T09:00:53;1.10;99.90
25092;DHT22;13082;52.374;4.946;2023-12-07T09:03:18;1.20;99.90
25092;DHT22;13082;52.374;4.946;2023-12-07T09:05:44;1.30;99.90
25092;DHT22;13082;52.374;4.946;2023-12-07T09:08:09;1.20;99.90
25092;DHT22;13082;52.374;4.946;2023-12-07T09:10:35;1.20;99.90
25092;DHT22;13082;52.374;4.946;2023-12-07T09:13:01;1.20;99.90
25092;DHT22;13082;52.374;4.946;2023-12-07T09:15:27;1.20;99.90
25092;DHT22;13082;52.374;4.946;2023-12-07T09:17:52;1.20;99.90
25092;DHT22;13082;52.374;4.946;2023-12-07T09:20:18;1.30;99.90
25092;DHT22;13082;52.374;4.946;2023-12-07T09:22:44;1.30;99.90
25092;DHT22;13082;52.374;4.946;2023-12-07T09:25:11;1.30;99.90
25092;DHT22;13082;52.374;4.946;2023-12-07T09:27:38;1.30;99.90
25092;DHT22;13082;52.374;4.946;2023-12-07T09:30:09;1.30;99.90
25092;DHT22;13082;52.374;4.946;2023-12-07T09:32:39;1.20;99.90
25092;DHT22;13082;52.374;4.946;2023-12-07T09:35:05;1.20;99.90
25092;DHT22;13082;52.374;4.946;2023-12-07T09:37:33;1.20;99.90
25092;DHT22;13082;52.374;4.946;2023-12-07T09:39:58;1.30;99.90
25092;DHT22;13082;52.374;4.946;2023-12-07T09:42:24;1.30;99.90
25092;DHT22;13082;52.374;4.946;2023-12-07T09:44:50;1.30;99.90
25092;DHT22;13082;52.374;4.946;2023-12-07T09:47:16;1.30;99.90
25092;DHT22;13082;52.374;4.946;2023-12-07T09:49:41;1.40;99.90
25092;DHT22;13082;52.374;4.946;2023-12-07T09:52:07;1.40;99.90
25092;DHT22;13082;52.374;4.946;2023-12-07T09:54:33;1.40;99.90
25092;DHT22;13082;52.374;4.946;2023-12-07T09:57:01;1.40;99.90
25092;DHT22;13082;52.374;4.946;2023-12-07T09:59:26;1.40;99.90
25092;DHT22;13082;52.374;4.946;2023-12-07T10:01:52;1.40;99.90
25092;DHT22;13082;52.374;4.946;2023-12-07T10:04:22;1.40;99.90
25092;DHT22;13082;52.374;4.946;2023-12-07T10:06:52;1.30;99.90
25092;DHT22;13082;52.374;4.946;2023-12-07T10:09:18;1.40;99.90
25092;DHT22;13082;52.374;4.946;2023-12-07T10:11:47;1.40;99.90
25092;DHT22;13082;52.374;4.946;2023-12-07T10:14:13;1.50;99.90
25092;DHT22;13082;52.374;4.946;2023-12-07T10:16:39;1.40;99.90
25092;DHT22;13082;52.374;4.946;2023-12-07T10:19:17;1.40;99.90
25092;DHT22;13082;52.374;4.946;2023-12-07T10:21:47;1.40;99.90
25092;DHT22;13082;52.374;4.946;2023-12-07T10:24:13;1.50;99.90
25092;DHT22;13082;52.374;4.946;2023-12-07T10:26:39;1.50;99.90
25092;DHT22;13082;52.374;4.946;2023-12-07T10:29:06;1.50;99.90
25092;DHT22;13082;52.374;4.946;2023-12-07T10:31:32;1.50;99.90
25092;DHT22;13082;52.374;4.946;2023-12-07T10:34:01;1.50;99.90
25092;DHT22;13082;52.374;4.946;2023-12-07T10:36:27;1.40;99.90
25092;DHT22;13082;52.374;4.946;2023-12-07T10:38:53;1.50;99.90
25092;DHT22;13082;52.374;4.946;2023-12-07T10:41:20;1.50;99.90
25092;DHT22;13082;52.374;4.946;2023-12-07T10:43:52;1.50;99.90
25092;DHT22;13082;52.374;4.946;2023-12-07T10:46:20;1.50;99.90
25092;DHT22;13082;52.374;4.946;2023-12-07T10:48:47;1.50;99.90
25092;DHT22;13082;52.374;4.946;2023-12-07T10:51:20;1.60;99.90
25092;DHT22;13082;52.374;4.946;2023-12-07T10:53:48;1.60;99.90
25092;DHT22;13082;52.374;4.946;2023-12-07T10:56:28;1.50;99.90
25092;DHT22;13082;52.374;4.946;2023-12-07T10:58:55;1.50;99.90
25092;DHT22;13082;52.374;4.946;2023-12-07T11:01:23;1.40;99.90
25092;DHT22;13082;52.374;4.946;2023-12-07T11:03:51;1.40;99.90
25092;DHT22;13082;52.374;4.946;2023-12-07T11:06:18;1.40;99.90
25092;DHT22;13082;52.374;4.946;2023-12-07T11:08:53;1.40;99.90
25092;DHT22;13082;52.374;4.946;2023-12-07T11:14:06;1.50;99.90
25092;DHT22;13082;52.374;4.946;2023-12-07T11:16:36;1.40;99.90
25092;DHT22;13082;52.374;4.946;2023-12-07T11:19:03;1.30;99.90
25092;DHT22;13082;52.374;4.946;2023-12-07T11:21:30;1.30;99.90
25092;DHT22;13082;52.374;4.946;2023-12-07T11:23:56;1.40;99.90
25092;DHT22;13082;52.374;4.946;2023-12-07T11:26:24;1.40;99.90
25092;DHT22;13082;52.374;4.946;2023-12-07T11:28:51;1.30;99.90
25092;DHT22;13082;52.374;4.946;2023-12-07T11:31:16;1.30;99.90
25092;DHT22;13082;52.374;4.946;2023-12-07T11:33:42;1.40;99.90
25092;DHT22;13082;52.374;4.946;2023-12-07T11:36:09;1.40;99.90
25092;DHT22;13082;52.374;4.946;2023-12-07T11:41:23;1.30;99.90
25092;DHT22;13082;52.374;4.946;2023-12-07T11:43:50;1.30;99.90
25092;DHT22;13082;52.374;4.946;2023-12-07T11:46:19;1.30;99.90
25092;DHT22;13082;52.374;4.946;2023-12-07T11:48:48;1.40;99.90
25092;DHT22;13082;52.374;4.946;2023-12-07T11:51:16;1.40;99.90
25092;DHT22;13082;52.374;4.946;2023-12-07T11:53:41;1.40;99.90
25092;DHT22;13082;52.374;4.946;2023-12-07T11:56:08;1.40;99.90
25092;DHT22;13082;52.374;4.946;2023-12-07T11:58:36;1.40;99.90
25092;DHT22;13082;52.374;4.946;2023-12-07T12:01:02;1.40;99.90
25092;DHT22;13082;52.374;4.946;2023-12-07T12:03:29;1.40;99.90
25092;DHT22;13082;52.374;4.946;2023-12-07T12:05:56;1.40;99.90
25092;DHT22;13082;52.374;4.946;2023-12-07T12:08:22;1.60;99.90
25092;DHT22;13082;52.374;4.946;2023-12-07T12:10:52;1.60;99.90
25092;DHT22;13082;52.374;4.946;2023-12-07T12:13:19;1.60;99.90
25092;DHT22;13082;52.374;4.946;2023-12-07T12:15:45;1.60;99.90
25092;DHT22;13082;52.374;4.946;2023-12-07T12:18:16;1.60;99.90
25092;DHT22;13082;52.374;4.946;2023-12-07T12:20:43;1.60;99.90
25092;DHT22;13082;52.374;4.946;2023-12-07T12:23:09;1.60;99.90
25092;DHT22;13082;52.374;4.946;2023-12-07T12:25:35;1.60;99.90
25092;DHT22;13082;52.374;4.946;2023-12-07T12:28:04;1.70;99.90
25092;DHT22;13082;52.374;4.946;2023-12-07T12:30:31;1.70;99.90
25092;DHT22;13082;52.374;4.946;2023-12-07T12:32:57;1.60;99.90
25092;DHT22;13082;52.374;4.946;2023-12-07T12:35:25;1.60;99.90
25092;DHT22;13082;52.374;4.946;2023-12-07T12:37:51;1.60;99.90
25092;DHT22;13082;52.374;4.946;2023-12-07T12:40:18;1.60;99.90
25092;DHT22;13082;52.374;4.946;2023-12-07T12:42:45;1.60;99.90
25092;DHT22;13082;52.374;4.946;2023-12-07T12:45:12;1.60;99.90
25092;DHT22;13082;52.374;4.946;2023-12-07T12:47:39;1.60;99.90
25092;DHT22;13082;52.374;4.946;2023-12-07T12:50:09;1.60;99.90
25092;DHT22;13082;52.374;4.946;2023-12-07T12:52:35;1.60;99.90
25092;DHT22;13082;52.374;4.946;2023-12-07T12:55:01;1.60;99.90
25092;DHT22;13082;52.374;4.946;2023-12-07T12:57:28;1.60;99.90
25092;DHT22;13082;52.374;4.946;2023-12-07T12:59:54;1.60;99.90
25092;DHT22;13082;52.374;4.946;2023-12-07T13:02:20;1.50;99.90
25092;DHT22;13082;52.374;4.946;2023-12-07T13:04:46;1.60;99.90
25092;DHT22;13082;52.374;4.946;2023-12-07T13:07:12;1.60;99.90
25092;DHT22;13082;52.374;4.946;2023-12-07T13:09:38;1.70;99.90
25092;DHT22;13082;52.374;4.946;2023-12-07T13:12:04;1.70;99.90
25092;DHT22;13082;52.374;4.946;2023-12-07T13:14:30;1.70;99.90
25092;DHT22;13082;52.374;4.946;2023-12-07T13:16:55;1.70;99.90
25092;DHT22;13082;52.374;4.946;2023-12-07T13:19:21;1.60;99.90
25092;DHT22;13082;52.374;4.946;2023-12-07T13:21:47;1.70;99.90
25092;DHT22;13082;52.374;4.946;2023-12-07T13:24:12;1.70;99.90
25092;DHT22;13082;52.374;4.946;2023-12-07T13:26:41;1.80;99.90
25092;DHT22;13082;52.374;4.946;2023-12-07T13:29:07;1.70;99.90
25092;DHT22;13082;52.374;4.946;2023-12-07T13:31:33;1.70;99.90
25092;DHT22;13082;52.374;4.946;2023-12-07T13:34:00;1.70;99.90
25092;DHT22;13082;52.374;4.946;2023-12-07T13:36:26;1.70;99.90
25092;DHT22;13082;52.374;4.946;2023-12-07T13:38:57;1.70;99.90
25092;DHT22;13082;52.374;4.946;2023-12-07T13:41:23;1.70;99.90
25092;DHT22;13082;52.374;4.946;2023-12-07T13:43:49;1.70;99.90
25092;DHT22;13082;52.374;4.946;2023-12-07T13:46:16;1.70;99.90
25092;DHT22;13082;52.374;4.946;2023-12-07T13:48:42;1.70;99.90
25092;DHT22;13082;52.374;4.946;2023-12-07T13:51:08;1.70;99.90
25092;DHT22;13082;52.374;4.946;2023-12-07T13:53:33;1.80;99.90
25092;DHT22;13082;52.374;4.946;2023-12-07T13:56:00;1.80;99.90
25092;DHT22;13082;52.374;4.946;2023-12-07T13:58:26;1.80;99.90
25092;DHT22;13082;52.374;4.946;2023-12-07T14:00:51;1.90;99.90
25092;DHT22;13082;52.374;4.946;2023-12-07T14:03:17;1.80;99.90
25092;DHT22;13082;52.374;4.946;2023-12-07T14:05:43;1.80;99.90
25092;DHT22;13082;52.374;4.946;2023-12-07T14:08:08;1.80;99.90
25092;DHT22;13082;52.374;4.946;2023-12-07T14:10:34;1.80;99.90
25092;DHT22;13082;52.374;4.946;2023-12-07T14:13:01;1.90;99.90
25092;DHT22;13082;52.374;4.946;2023-12-07T14:15:26;1.90;99.90
25092;DHT22;13082;52.374;4.946;2023-12-07T14:17:52;1.90;99.90
25092;DHT22;13082;52.374;4.946;2023-12-07T14:20:18;1.90;99.90
25092;DHT22;13082;52.374;4.946;2023-12-07T14:22:46;1.90;99.90
25092;DHT22;13082;52.374;4.946;2023-12-07T14:25:12;1.90;99.90
25092;DHT22;13082;52.374;4.946;2023-12-07T14:27:37;1.90;99.90
25092;DHT22;13082;52.374;4.946;2023-12-07T14:30:03;1.90;99.90
25092;DHT22;13082;52.374;4.946;2023-12-07T14:32:29;1.90;99.90
25092;DHT22;13082;52.374;4.946;2023-12-07T14:34:55;2.00;99.90
25092;DHT22;13082;52.374;4.946;2023-12-07T14:37:21;1.90;99.90
25092;DHT22;13082;52.374;4.946;2023-12-07T14:39:46;2.00;99.90
25092;DHT22;13082;52.374;4.946;2023-12-07T14:42:12;2.00;99.90
25092;DHT22;13082;52.374;4.946;2023-12-07T14:44:38;2.00;99.90
25092;DHT22;13082;52.374;4.946;2023-12-07T14:47:04;2.00;99.90
25092;DHT22;13082;52.374;4.946;2023-12-07T14:49:30;2.00;99.90
25092;DHT22;13082;52.374;4.946;2023-12-07T14:51:56;2.00;99.90
25092;DHT22;13082;52.374;4.946;2023-12-07T14:54:24;2.00;99.90
25092;DHT22;13082;52.374;4.946;2023-12-07T14:56:49;2.10;99.90
25092;DHT22;13082;52.374;4.946;2023-12-07T14:59:15;2.00;99.90
25092;DHT22;13082;52.374;4.946;2023-12-07T15:01:42;2.10;99.90
25092;DHT22;13082;52.374;4.946;2023-12-07T15:04:08;2.10;99.90
25092;DHT22;13082;52.374;4.946;2023-12-07T15:06:35;2.10;99.90
25092;DHT22;13082;52.374;4.946;2023-12-07T15:09:01;2.20;99.90
25092;DHT22;13082;52.374;4.946;2023-12-07T15:11:31;2.20;99.90
25092;DHT22;13082;52.374;4.946;2023-12-07T15:13:56;2.20;99.90
25092;DHT22;13082;52.374;4.946;2023-12-07T15:16:22;2.20;99.90
25092;DHT22;13082;52.374;4.946;2023-12-07T15:18:47;2.20;99.90
25092;DHT22;13082;52.374;4.946;2023-12-07T15:21:13;2.20;99.90
25092;DHT22;13082;52.374;4.946;2023-12-07T15:23:40;2.30;99.90
25092;DHT22;13082;52.374;4.946;2023-12-07T15:26:06;2.30;99.90
25092;DHT22;13082;52.374;4.946;2023-12-07T15:28:33;2.40;99.90
25092;DHT22;13082;52.374;4.946;2023-12-07T15:30:59;2.40;99.90
25092;DHT22;13082;52.374;4.946;2023-12-07T15:33:25;2.50;99.90
25092;DHT22;13082;52.374;4.946;2023-12-07T15:35:50;2.50;99.90
25092;DHT22;13082;52.374;4.946;2023-12-07T15:38:16;2.60;99.90
25092;DHT22;13082;52.374;4.946;2023-12-07T15:40:41;2.60;99.90
25092;DHT22;13082;52.374;4.946;2023-12-07T15:43:08;2.70;99.90
25092;DHT22;13082;52.374;4.946;2023-12-07T15:45:34;2.70;99.90